sensor_id;sensor_type;location;lat;lon;timestamp;P1;durP1;ratioP1;P2;durP2;ratioP2
12385;SDS011;6257;57.634;18.310;2024-03-08T00:02:04;94.20;;;6.70;;
12385;SDS011;6257;57.634;18.310;2024-03-08T00:04:32;31.40;;;4.30;;
12385;SDS011;6257;57.634;18.310;2024-03-08T00:06:59;60.03;;;4.63;;
12385;SDS011;6257;57.634;18.310;2024-03-08T00:09:26;65.83;;;5.73;;
12385;SDS011;6257;57.634;18.310;2024-03-08T00:11:55;42.60;;;4.47;;
12385;SDS011;6257;57.634;18.310;2024-03-08T00:14:23;35.00;;;4.30;;
12385;SDS011;6257;57.634;18.310;2024-03-08T00:16:50;26.97;;;3.60;;
12385;SDS011;6257;57.634;18.310;2024-03-08T00:19:17;22.60;;;3.57;;
12385;SDS011;6257;57.634;18.310;2024-03-08T00:21:46;24.17;;;3.87;;
12385;SDS011;6257;57.634;18.310;2024-03-08T00:24:13;9.70;;;4.07;;
12385;SDS011;6257;57.634;18.310;2024-03-08T00:26:40;11.30;;;3.40;;
12385;SDS011;6257;57.634;18.310;2024-03-08T00:29:08;8.77;;;3.53;;
12385;SDS011;6257;57.634;18.310;2024-03-08T00:31:35;7.40;;;3.07;;
12385;SDS011;6257;57.634;18.310;2024-03-08T00:34:02;6.87;;;3.40;;
12385;SDS011;6257;57.634;18.310;2024-03-08T00:36:29;7.77;;;3.73;;
12385;SDS011;6257;57.634;18.310;2024-03-08T00:38:58;8.33;;;3.53;;
12385;SDS011;6257;57.634;18.310;2024-03-08T00:41:25;9.20;;;4.03;;
12385;SDS011;6257;57.634;18.310;2024-03-08T00:43:53;8.20;;;3.87;;
12385;SDS011;6257;57.634;18.310;2024-03-08T00:46:20;6.77;;;3.43;;
12385;SDS011;6257;57.634;18.310;2024-03-08T00:48:47;7.10;;;3.67;;
12385;SDS011;6257;57.634;18.310;2024-03-08T00:51:14;7.50;;;3.70;;
12385;SDS011;6257;57.634;18.310;2024-03-08T00:53:41;6.30;;;3.57;;
12385;SDS011;6257;57.634;18.310;2024-03-08T00:56:10;7.90;;;4.17;;
12385;SDS011;6257;57.634;18.310;2024-03-08T00:58:37;6.80;;;3.63;;
12385;SDS011;6257;57.634;18.310;2024-03-08T01:01:05;7.20;;;3.57;;
12385;SDS011;6257;57.634;18.310;2024-03-08T01:03:32;5.30;;;3.33;;
12385;SDS011;6257;57.634;18.310;2024-03-08T01:05:59;6.57;;;3.63;;
12385;SDS011;6257;57.634;18.310;2024-03-08T01:08:27;7.40;;;3.40;;
12385;SDS011;6257;57.634;18.310;2024-03-08T01:10:54;9.47;;;3.53;;
12385;SDS011;6257;57.634;18.310;2024-03-08T01:13:23;7.37;;;3.90;;
12385;SDS011;6257;57.634;18.310;2024-03-08T01:15:50;6.60;;;3.80;;
12385;SDS011;6257;57.634;18.310;2024-03-08T01:18:17;6.90;;;4.17;;
12385;SDS011;6257;57.634;18.310;2024-03-08T01:20:44;7.57;;;4.43;;
12385;SDS011;6257;57.634;18.310;2024-03-08T01:23:11;9.60;;;4.47;;
12385;SDS011;6257;57.634;18.310;2024-03-08T01:25:39;8.33;;;4.50;;
12385;SDS011;6257;57.634;18.310;2024-03-08T01:28:09;11.27;;;5.00;;
12385;SDS011;6257;57.634;18.310;2024-03-08T01:30:37;6.73;;;4.27;;
12385;SDS011;6257;57.634;18.310;2024-03-08T01:33:05;9.40;;;4.77;;
12385;SDS011;6257;57.634;18.310;2024-03-08T01:35:32;9.03;;;4.30;;
12385;SDS011;6257;57.634;18.310;2024-03-08T01:37:59;10.67;;;4.33;;
12385;SDS011;6257;57.634;18.310;2024-03-08T01:40:30;7.60;;;4.47;;
12385;SDS011;6257;57.634;18.310;2024-03-08T01:42:57;6.13;;;4.27;;
12385;SDS011;6257;57.634;18.310;2024-03-08T01:45:24;8.00;;;4.53;;
12385;SDS011;6257;57.634;18.310;2024-03-08T01:47:53;6.80;;;4.70;;
12385;SDS011;6257;57.634;18.310;2024-03-08T01:50:20;6.77;;;4.67;;
12385;SDS011;6257;57.634;18.310;2024-03-08T01:52:47;6.63;;;4.20;;
12385;SDS011;6257;57.634;18.310;2024-03-08T01:55:15;5.90;;;4.23;;
12385;SDS011;6257;57.634;18.310;2024-03-08T01:57:43;6.20;;;3.93;;
12385;SDS011;6257;57.634;18.310;2024-03-08T02:00:11;5.60;;;3.90;;
12385;SDS011;6257;57.634;18.310;2024-03-08T02:02:38;5.30;;;3.77;;
12385;SDS011;6257;57.634;18.310;2024-03-08T02:05:11;6.17;;;3.80;;
12385;SDS011;6257;57.634;18.310;2024-03-08T02:07:40;5.40;;;3.67;;
12385;SDS011;6257;57.634;18.310;2024-03-08T02:10:09;8.20;;;4.20;;
12385;SDS011;6257;57.634;18.310;2024-03-08T02:12:37;6.90;;;4.07;;
12385;SDS011;6257;57.634;18.310;2024-03-08T02:15:05;6.97;;;4.10;;
12385;SDS011;6257;57.634;18.310;2024-03-08T02:17:33;7.07;;;3.83;;
12385;SDS011;6257;57.634;18.310;2024-03-08T02:20:00;8.23;;;4.30;;
12385;SDS011;6257;57.634;18.310;2024-03-08T02:22:30;5.50;;;3.50;;
12385;SDS011;6257;57.634;18.310;2024-03-08T02:24:58;6.47;;;3.80;;
12385;SDS011;6257;57.634;18.310;2024-03-08T02:27:26;5.27;;;4.13;;
12385;SDS011;6257;57.634;18.310;2024-03-08T02:29:55;4.90;;;3.50;;
12385;SDS011;6257;57.634;18.310;2024-03-08T02:32:23;9.03;;;4.00;;
12385;SDS011;6257;57.634;18.310;2024-03-08T02:34:50;6.23;;;4.00;;
12385;SDS011;6257;57.634;18.310;2024-03-08T02:37:17;5.43;;;3.63;;
12385;SDS011;6257;57.634;18.310;2024-03-08T02:39:45;4.50;;;3.50;;
12385;SDS011;6257;57.634;18.310;2024-03-08T02:42:13;5.33;;;3.77;;
12385;SDS011;6257;57.634;18.310;2024-03-08T02:44:42;7.47;;;3.70;;
12385;SDS011;6257;57.634;18.310;2024-03-08T02:47:10;5.60;;;3.77;;
12385;SDS011;6257;57.634;18.310;2024-03-08T02:49:37;4.90;;;3.47;;
12385;SDS011;6257;57.634;18.310;2024-03-08T02:52:04;4.47;;;3.60;;
12385;SDS011;6257;57.634;18.310;2024-03-08T02:54:32;5.00;;;3.57;;
12385;SDS011;6257;57.634;18.310;2024-03-08T02:57:01;6.77;;;3.70;;
12385;SDS011;6257;57.634;18.310;2024-03-08T02:59:29;8.67;;;5.67;;
12385;SDS011;6257;57.634;18.310;2024-03-08T03:01:56;6.60;;;5.10;;
12385;SDS011;6257;57.634;18.310;2024-03-08T03:04:23;6.13;;;4.30;;
12385;SDS011;6257;57.634;18.310;2024-03-08T03:06:50;8.60;;;5.23;;
12385;SDS011;6257;57.634;18.310;2024-03-08T03:09:17;6.10;;;4.23;;
12385;SDS011;6257;57.634;18.310;2024-03-08T03:11:48;7.83;;;4.10;;
12385;SDS011;6257;57.634;18.310;2024-03-08T03:14:17;5.27;;;3.37;;
12385;SDS011;6257;57.634;18.310;2024-03-08T03:16:44;6.80;;;3.60;;
12385;SDS011;6257;57.634;18.310;2024-03-08T03:19:11;5.47;;;3.70;;
12385;SDS011;6257;57.634;18.310;2024-03-08T03:21:40;12.83;;;3.90;;
12385;SDS011;6257;57.634;18.310;2024-03-08T03:24:08;11.47;;;3.90;;
12385;SDS011;6257;57.634;18.310;2024-03-08T03:26:35;7.53;;;3.50;;
12385;SDS011;6257;57.634;18.310;2024-03-08T03:29:04;6.63;;;3.57;;
12385;SDS011;6257;57.634;18.310;2024-03-08T03:31:35;6.53;;;3.63;;
12385;SDS011;6257;57.634;18.310;2024-03-08T03:34:03;5.77;;;3.43;;
12385;SDS011;6257;57.634;18.310;2024-03-08T03:36:34;6.50;;;3.57;;
12385;SDS011;6257;57.634;18.310;2024-03-08T03:39:03;7.07;;;3.23;;
12385;SDS011;6257;57.634;18.310;2024-03-08T03:41:35;6.50;;;3.50;;
12385;SDS011;6257;57.634;18.310;2024-03-08T03:44:03;4.87;;;3.50;;
12385;SDS011;6257;57.634;18.310;2024-03-08T03:46:31;6.87;;;4.00;;
12385;SDS011;6257;57.634;18.310;2024-03-08T03:49:00;7.10;;;3.60;;
12385;SDS011;6257;57.634;18.310;2024-03-08T03:51:28;5.30;;;3.70;;
12385;SDS011;6257;57.634;18.310;2024-03-08T03:53:55;5.90;;;3.53;;
12385;SDS011;6257;57.634;18.310;2024-03-08T03:56:24;4.93;;;3.47;;
12385;SDS011;6257;57.634;18.310;2024-03-08T03:58:52;6.93;;;3.80;;
12385;SDS011;6257;57.634;18.310;2024-03-08T04:01:19;6.67;;;3.60;;
12385;SDS011;6257;57.634;18.310;2024-03-08T04:03:46;11.97;;;4.73;;
12385;SDS011;6257;57.634;18.310;2024-03-08T04:06:15;11.00;;;5.50;;
12385;SDS011;6257;57.634;18.310;2024-03-08T04:08:42;16.10;;;6.60;;
12385;SDS011;6257;57.634;18.310;2024-03-08T04:11:09;12.47;;;5.20;;
12385;SDS011;6257;57.634;18.310;2024-03-08T04:13:36;11.03;;;5.93;;
12385;SDS011;6257;57.634;18.310;2024-03-08T04:16:04;11.53;;;6.07;;
12385;SDS011;6257;57.634;18.310;2024-03-08T04:18:33;12.77;;;6.73;;
12385;SDS011;6257;57.634;18.310;2024-03-08T04:21:03;11.67;;;6.87;;
12385;SDS011;6257;57.634;18.310;2024-03-08T04:23:33;14.93;;;7.27;;
12385;SDS011;6257;57.634;18.310;2024-03-08T04:26:00;13.70;;;6.97;;
12385;SDS011;6257;57.634;18.310;2024-03-08T04:28:28;15.10;;;7.27;;
12385;SDS011;6257;57.634;18.310;2024-03-08T04:30:56;14.80;;;7.33;;
12385;SDS011;6257;57.634;18.310;2024-03-08T04:33:25;12.67;;;7.00;;
12385;SDS011;6257;57.634;18.310;2024-03-08T04:35:53;17.40;;;7.20;;
12385;SDS011;6257;57.634;18.310;2024-03-08T04:38:20;17.97;;;7.93;;
12385;SDS011;6257;57.634;18.310;2024-03-08T04:40:49;19.00;;;7.57;;
12385;SDS011;6257;57.634;18.310;2024-03-08T04:43:16;15.83;;;8.00;;
12385;SDS011;6257;57.634;18.310;2024-03-08T04:45:45;12.70;;;7.57;;
12385;SDS011;6257;57.634;18.310;2024-03-08T04:48:13;13.97;;;7.23;;
12385;SDS011;6257;57.634;18.310;2024-03-08T04:50:40;17.87;;;7.97;;
12385;SDS011;6257;57.634;18.310;2024-03-08T04:53:07;16.03;;;8.43;;
12385;SDS011;6257;57.634;18.310;2024-03-08T04:55:35;21.93;;;8.23;;
12385;SDS011;6257;57.634;18.310;2024-03-08T04:58:04;21.47;;;8.93;;
12385;SDS011;6257;57.634;18.310;2024-03-08T05:00:32;17.73;;;9.13;;
12385;SDS011;6257;57.634;18.310;2024-03-08T05:03:00;16.13;;;8.37;;
12385;SDS011;6257;57.634;18.310;2024-03-08T05:05:27;17.27;;;8.27;;
12385;SDS011;6257;57.634;18.310;2024-03-08T05:07:55;20.87;;;8.60;;
12385;SDS011;6257;57.634;18.310;2024-03-08T05:10:22;23.10;;;8.87;;
12385;SDS011;6257;57.634;18.310;2024-03-08T05:12:50;18.57;;;8.70;;
12385;SDS011;6257;57.634;18.310;2024-03-08T05:15:19;19.47;;;8.83;;
12385;SDS011;6257;57.634;18.310;2024-03-08T05:17:46;23.83;;;8.93;;
12385;SDS011;6257;57.634;18.310;2024-03-08T05:20:13;31.13;;;9.33;;
12385;SDS011;6257;57.634;18.310;2024-03-08T05:22:42;31.97;;;9.40;;
12385;SDS011;6257;57.634;18.310;2024-03-08T05:25:09;25.73;;;8.27;;
12385;SDS011;6257;57.634;18.310;2024-03-08T05:27:37;24.40;;;8.70;;
12385;SDS011;6257;57.634;18.310;2024-03-08T05:30:05;24.30;;;9.17;;
12385;SDS011;6257;57.634;18.310;2024-03-08T05:32:34;22.57;;;8.63;;
12385;SDS011;6257;57.634;18.310;2024-03-08T05:35:02;26.00;;;8.20;;
12385;SDS011;6257;57.634;18.310;2024-03-08T05:37:32;19.37;;;7.67;;
12385;SDS011;6257;57.634;18.310;2024-03-08T05:39:59;21.60;;;7.90;;
12385;SDS011;6257;57.634;18.310;2024-03-08T05:42:26;25.07;;;8.97;;
12385;SDS011;6257;57.634;18.310;2024-03-08T05:44:53;21.70;;;8.37;;
12385;SDS011;6257;57.634;18.310;2024-03-08T05:47:23;26.67;;;8.93;;
12385;SDS011;6257;57.634;18.310;2024-03-08T05:49:52;23.63;;;8.60;;
12385;SDS011;6257;57.634;18.310;2024-03-08T05:52:19;33.20;;;8.83;;
12385;SDS011;6257;57.634;18.310;2024-03-08T05:54:47;23.77;;;8.17;;
12385;SDS011;6257;57.634;18.310;2024-03-08T05:57:14;28.53;;;8.53;;
12385;SDS011;6257;57.634;18.310;2024-03-08T05:59:42;34.50;;;9.30;;
12385;SDS011;6257;57.634;18.310;2024-03-08T06:02:09;28.27;;;8.63;;
12385;SDS011;6257;57.634;18.310;2024-03-08T06:04:36;26.97;;;9.67;;
12385;SDS011;6257;57.634;18.310;2024-03-08T06:07:04;27.70;;;9.17;;
12385;SDS011;6257;57.634;18.310;2024-03-08T06:09:37;31.90;;;9.07;;
12385;SDS011;6257;57.634;18.310;2024-03-08T06:12:04;27.77;;;8.87;;
12385;SDS011;6257;57.634;18.310;2024-03-08T06:14:34;28.73;;;8.73;;
12385;SDS011;6257;57.634;18.310;2024-03-08T06:17:01;26.50;;;8.37;;
12385;SDS011;6257;57.634;18.310;2024-03-08T06:19:30;22.40;;;7.83;;
12385;SDS011;6257;57.634;18.310;2024-03-08T06:21:57;25.03;;;8.23;;
12385;SDS011;6257;57.634;18.310;2024-03-08T06:24:27;23.73;;;8.50;;
12385;SDS011;6257;57.634;18.310;2024-03-08T06:26:54;20.60;;;7.53;;
12385;SDS011;6257;57.634;18.310;2024-03-08T06:29:21;26.73;;;8.30;;
12385;SDS011;6257;57.634;18.310;2024-03-08T06:31:48;24.03;;;8.07;;
12385;SDS011;6257;57.634;18.310;2024-03-08T06:34:15;27.53;;;8.13;;
12385;SDS011;6257;57.634;18.310;2024-03-08T06:36:43;28.70;;;8.40;;
12385;SDS011;6257;57.634;18.310;2024-03-08T06:39:10;29.53;;;8.07;;
12385;SDS011;6257;57.634;18.310;2024-03-08T06:41:38;27.03;;;8.27;;
12385;SDS011;6257;57.634;18.310;2024-03-08T06:44:05;19.23;;;7.43;;
12385;SDS011;6257;57.634;18.310;2024-03-08T06:46:33;22.17;;;7.50;;
12385;SDS011;6257;57.634;18.310;2024-03-08T06:49:00;22.10;;;8.30;;
12385;SDS011;6257;57.634;18.310;2024-03-08T06:51:28;28.47;;;7.93;;
12385;SDS011;6257;57.634;18.310;2024-03-08T06:53:55;31.80;;;8.87;;
12385;SDS011;6257;57.634;18.310;2024-03-08T06:56:22;28.83;;;11.57;;
12385;SDS011;6257;57.634;18.310;2024-03-08T06:58:52;30.93;;;10.87;;
12385;SDS011;6257;57.634;18.310;2024-03-08T07:01:20;26.97;;;8.37;;
12385;SDS011;6257;57.634;18.310;2024-03-08T07:03:46;17.57;;;5.80;;
12385;SDS011;6257;57.634;18.310;2024-03-08T07:06:13;24.97;;;6.00;;
12385;SDS011;6257;57.634;18.310;2024-03-08T07:08:40;5.97;;;3.63;;
12385;SDS011;6257;57.634;18.310;2024-03-08T07:11:11;3.83;;;3.43;;
12385;SDS011;6257;57.634;18.310;2024-03-08T07:13:43;7.83;;;3.40;;
12385;SDS011;6257;57.634;18.310;2024-03-08T07:16:11;6.60;;;3.30;;
12385;SDS011;6257;57.634;18.310;2024-03-08T07:18:38;7.53;;;3.20;;
12385;SDS011;6257;57.634;18.310;2024-03-08T07:21:08;4.37;;;2.90;;
12385;SDS011;6257;57.634;18.310;2024-03-08T07:23:35;3.77;;;2.80;;
12385;SDS011;6257;57.634;18.310;2024-03-08T07:26:38;5.53;;;3.37;;
12385;SDS011;6257;57.634;18.310;2024-03-08T07:29:05;4.23;;;2.40;;
12385;SDS011;6257;57.634;18.310;2024-03-08T07:31:34;5.27;;;2.60;;
12385;SDS011;6257;57.634;18.310;2024-03-08T07:34:15;4.40;;;2.90;;
12385;SDS011;6257;57.634;18.310;2024-03-08T07:36:42;40.93;;;4.03;;
12385;SDS011;6257;57.634;18.310;2024-03-08T07:39:09;7.53;;;3.20;;
12385;SDS011;6257;57.634;18.310;2024-03-08T07:41:37;22.23;;;3.37;;
12385;SDS011;6257;57.634;18.310;2024-03-08T07:44:05;10.27;;;3.50;;
12385;SDS011;6257;57.634;18.310;2024-03-08T07:46:32;42.90;;;6.93;;
12385;SDS011;6257;57.634;18.310;2024-03-08T07:49:01;17.63;;;3.53;;
12385;SDS011;6257;57.634;18.310;2024-03-08T07:51:28;31.07;;;4.33;;
12385;SDS011;6257;57.634;18.310;2024-03-08T07:53:56;32.10;;;4.43;;
12385;SDS011;6257;57.634;18.310;2024-03-08T07:56:25;116.80;;;9.87;;
12385;SDS011;6257;57.634;18.310;2024-03-08T07:58:52;13.50;;;2.67;;
12385;SDS011;6257;57.634;18.310;2024-03-08T08:01:19;15.23;;;2.50;;
12385;SDS011;6257;57.634;18.310;2024-03-08T08:03:47;8.83;;;2.73;;
12385;SDS011;6257;57.634;18.310;2024-03-08T08:06:16;3.50;;;2.10;;
12385;SDS011;6257;57.634;18.310;2024-03-08T08:08:43;6.37;;;2.23;;
12385;SDS011;6257;57.634;18.310;2024-03-08T08:11:10;3.57;;;2.30;;
12385;SDS011;6257;57.634;18.310;2024-03-08T08:13:37;4.57;;;2.43;;
12385;SDS011;6257;57.634;18.310;2024-03-08T08:16:05;4.13;;;1.93;;
12385;SDS011;6257;57.634;18.310;2024-03-08T08:18:32;2.40;;;1.83;;
12385;SDS011;6257;57.634;18.310;2024-03-08T08:21:00;2.97;;;1.80;;
12385;SDS011;6257;57.634;18.310;2024-03-08T08:23:29;2.23;;;1.70;;
12385;SDS011;6257;57.634;18.310;2024-03-08T08:25:56;2.80;;;1.57;;
12385;SDS011;6257;57.634;18.310;2024-03-08T08:28:23;4.73;;;2.10;;
12385;SDS011;6257;57.634;18.310;2024-03-08T08:30:50;2.10;;;1.77;;
12385;SDS011;6257;57.634;18.310;2024-03-08T08:33:17;4.73;;;2.30;;
12385;SDS011;6257;57.634;18.310;2024-03-08T08:35:44;3.77;;;2.20;;
12385;SDS011;6257;57.634;18.310;2024-03-08T08:38:12;2.60;;;2.10;;
12385;SDS011;6257;57.634;18.310;2024-03-08T08:40:41;6.23;;;2.67;;
12385;SDS011;6257;57.634;18.310;2024-03-08T08:43:09;5.30;;;2.33;;
12385;SDS011;6257;57.634;18.310;2024-03-08T08:45:36;5.13;;;2.07;;
12385;SDS011;6257;57.634;18.310;2024-03-08T08:48:04;13.27;;;3.17;;
12385;SDS011;6257;57.634;18.310;2024-03-08T08:50:31;7.73;;;2.33;;
12385;SDS011;6257;57.634;18.310;2024-03-08T08:52:59;8.90;;;2.67;;
12385;SDS011;6257;57.634;18.310;2024-03-08T08:55:26;10.83;;;2.60;;
12385;SDS011;6257;57.634;18.310;2024-03-08T08:57:55;7.53;;;2.20;;
12385;SDS011;6257;57.634;18.310;2024-03-08T09:00:22;7.90;;;3.00;;
12385;SDS011;6257;57.634;18.310;2024-03-08T09:02:52;11.83;;;2.70;;
12385;SDS011;6257;57.634;18.310;2024-03-08T09:05:22;8.77;;;2.93;;
12385;SDS011;6257;57.634;18.310;2024-03-08T09:07:49;32.67;;;4.80;;
12385;SDS011;6257;57.634;18.310;2024-03-08T09:10:18;6.13;;;2.50;;
12385;SDS011;6257;57.634;18.310;2024-03-08T09:12:45;15.70;;;3.37;;
12385;SDS011;6257;57.634;18.310;2024-03-08T09:15:13;23.07;;;4.57;;
12385;SDS011;6257;57.634;18.310;2024-03-08T09:17:43;8.47;;;3.50;;
12385;SDS011;6257;57.634;18.310;2024-03-08T09:20:10;19.40;;;4.13;;
12385;SDS011;6257;57.634;18.310;2024-03-08T09:22:40;16.93;;;3.40;;
12385;SDS011;6257;57.634;18.310;2024-03-08T09:25:08;10.67;;;2.93;;
12385;SDS011;6257;57.634;18.310;2024-03-08T09:27:35;9.50;;;2.67;;
12385;SDS011;6257;57.634;18.310;2024-03-08T09:30:02;20.77;;;4.23;;
12385;SDS011;6257;57.634;18.310;2024-03-08T09:32:33;8.60;;;2.90;;
12385;SDS011;6257;57.634;18.310;2024-03-08T09:35:02;7.90;;;2.80;;
12385;SDS011;6257;57.634;18.310;2024-03-08T09:37:32;14.37;;;3.03;;
12385;SDS011;6257;57.634;18.310;2024-03-08T09:39:59;11.37;;;3.30;;
12385;SDS011;6257;57.634;18.310;2024-03-08T09:42:29;15.37;;;7.87;;
12385;SDS011;6257;57.634;18.310;2024-03-08T09:44:57;14.23;;;3.60;;
12385;SDS011;6257;57.634;18.310;2024-03-08T09:47:25;19.97;;;3.87;;
12385;SDS011;6257;57.634;18.310;2024-03-08T09:49:55;7.40;;;2.20;;
12385;SDS011;6257;57.634;18.310;2024-03-08T09:52:23;14.40;;;3.50;;
12385;SDS011;6257;57.634;18.310;2024-03-08T09:54:50;3.20;;;1.90;;
12385;SDS011;6257;57.634;18.310;2024-03-08T09:57:18;12.57;;;2.77;;
12385;SDS011;6257;57.634;18.310;2024-03-08T09:59:45;28.57;;;4.43;;
12385;SDS011;6257;57.634;18.310;2024-03-08T10:02:16;51.70;;;5.73;;
12385;SDS011;6257;57.634;18.310;2024-03-08T10:04:43;15.60;;;3.40;;
12385;SDS011;6257;57.634;18.310;2024-03-08T10:07:15;6.30;;;2.37;;
12385;SDS011;6257;57.634;18.310;2024-03-08T10:09:42;14.63;;;2.97;;
12385;SDS011;6257;57.634;18.310;2024-03-08T10:12:15;5.20;;;2.00;;
12385;SDS011;6257;57.634;18.310;2024-03-08T10:14:45;17.50;;;3.10;;
12385;SDS011;6257;57.634;18.310;2024-03-08T10:17:12;23.23;;;4.77;;
12385;SDS011;6257;57.634;18.310;2024-03-08T10:19:39;6.20;;;2.07;;
12385;SDS011;6257;57.634;18.310;2024-03-08T10:22:17;14.53;;;3.17;;
12385;SDS011;6257;57.634;18.310;2024-03-08T10:24:45;25.27;;;4.17;;
12385;SDS011;6257;57.634;18.310;2024-03-08T10:27:12;35.83;;;5.20;;
12385;SDS011;6257;57.634;18.310;2024-03-08T10:29:41;23.50;;;3.10;;
12385;SDS011;6257;57.634;18.310;2024-03-08T10:32:09;11.33;;;3.17;;
12385;SDS011;6257;57.634;18.310;2024-03-08T10:34:37;9.10;;;2.30;;
12385;SDS011;6257;57.634;18.310;2024-03-08T10:37:04;16.77;;;3.40;;
12385;SDS011;6257;57.634;18.310;2024-03-08T10:39:37;14.50;;;2.40;;
12385;SDS011;6257;57.634;18.310;2024-03-08T10:42:04;11.10;;;2.37;;
12385;SDS011;6257;57.634;18.310;2024-03-08T10:44:36;12.23;;;2.70;;
12385;SDS011;6257;57.634;18.310;2024-03-08T10:47:13;6.67;;;2.23;;
12385;SDS011;6257;57.634;18.310;2024-03-08T10:49:44;12.27;;;2.57;;
12385;SDS011;6257;57.634;18.310;2024-03-08T10:52:16;14.73;;;2.90;;
12385;SDS011;6257;57.634;18.310;2024-03-08T10:54:47;31.70;;;4.23;;
12385;SDS011;6257;57.634;18.310;2024-03-08T10:57:17;18.00;;;3.73;;
12385;SDS011;6257;57.634;18.310;2024-03-08T10:59:49;14.43;;;3.50;;
12385;SDS011;6257;57.634;18.310;2024-03-08T11:02:17;13.43;;;2.87;;
12385;SDS011;6257;57.634;18.310;2024-03-08T11:04:46;10.57;;;2.63;;
12385;SDS011;6257;57.634;18.310;2024-03-08T11:07:14;34.90;;;4.33;;
12385;SDS011;6257;57.634;18.310;2024-03-08T11:09:44;7.27;;;2.00;;
12385;SDS011;6257;57.634;18.310;2024-03-08T11:12:21;12.93;;;2.70;;
12385;SDS011;6257;57.634;18.310;2024-03-08T11:14:51;6.40;;;1.90;;
12385;SDS011;6257;57.634;18.310;2024-03-08T11:17:25;25.57;;;3.67;;
12385;SDS011;6257;57.634;18.310;2024-03-08T11:19:54;8.10;;;2.17;;
12385;SDS011;6257;57.634;18.310;2024-03-08T11:22:27;12.73;;;2.50;;
12385;SDS011;6257;57.634;18.310;2024-03-08T11:25:00;14.93;;;3.07;;
12385;SDS011;6257;57.634;18.310;2024-03-08T11:27:29;12.43;;;2.30;;
12385;SDS011;6257;57.634;18.310;2024-03-08T11:29:59;14.63;;;2.73;;
12385;SDS011;6257;57.634;18.310;2024-03-08T11:32:35;18.00;;;3.37;;
12385;SDS011;6257;57.634;18.310;2024-03-08T11:35:05;14.57;;;2.70;;
12385;SDS011;6257;57.634;18.310;2024-03-08T11:37:33;33.03;;;5.10;;
12385;SDS011;6257;57.634;18.310;2024-03-08T11:40:08;11.43;;;2.73;;
12385;SDS011;6257;57.634;18.310;2024-03-08T11:42:43;12.23;;;3.10;;
12385;SDS011;6257;57.634;18.310;2024-03-08T11:45:12;16.53;;;2.80;;
12385;SDS011;6257;57.634;18.310;2024-03-08T11:47:41;8.57;;;2.23;;
12385;SDS011;6257;57.634;18.310;2024-03-08T11:50:11;11.43;;;2.13;;
12385;SDS011;6257;57.634;18.310;2024-03-08T11:52:39;10.50;;;2.30;;
12385;SDS011;6257;57.634;18.310;2024-03-08T11:55:10;12.10;;;2.20;;
12385;SDS011;6257;57.634;18.310;2024-03-08T11:57:38;20.97;;;3.33;;
12385;SDS011;6257;57.634;18.310;2024-03-08T12:00:11;15.27;;;2.23;;
12385;SDS011;6257;57.634;18.310;2024-03-08T12:03:00;8.37;;;1.90;;
12385;SDS011;6257;57.634;18.310;2024-03-08T12:05:28;38.70;;;4.23;;
12385;SDS011;6257;57.634;18.310;2024-03-08T12:07:56;3.97;;;1.60;;
12385;SDS011;6257;57.634;18.310;2024-03-08T12:10:25;66.53;;;7.63;;
12385;SDS011;6257;57.634;18.310;2024-03-08T12:12:53;20.23;;;2.97;;
12385;SDS011;6257;57.634;18.310;2024-03-08T12:15:22;6.93;;;2.10;;
12385;SDS011;6257;57.634;18.310;2024-03-08T12:17:50;5.47;;;1.77;;
12385;SDS011;6257;57.634;18.310;2024-03-08T12:20:19;11.27;;;2.63;;
12385;SDS011;6257;57.634;18.310;2024-03-08T12:22:48;14.20;;;2.40;;
12385;SDS011;6257;57.634;18.310;2024-03-08T12:25:17;14.10;;;2.70;;
12385;SDS011;6257;57.634;18.310;2024-03-08T12:27:46;11.00;;;2.27;;
12385;SDS011;6257;57.634;18.310;2024-03-08T12:30:20;15.17;;;2.70;;
12385;SDS011;6257;57.634;18.310;2024-03-08T12:32:52;12.67;;;2.87;;
12385;SDS011;6257;57.634;18.310;2024-03-08T12:35:21;12.37;;;2.47;;
12385;SDS011;6257;57.634;18.310;2024-03-08T12:37:50;12.40;;;2.97;;
12385;SDS011;6257;57.634;18.310;2024-03-08T12:40:18;9.13;;;2.20;;
12385;SDS011;6257;57.634;18.310;2024-03-08T12:42:48;14.07;;;3.00;;
12385;SDS011;6257;57.634;18.310;2024-03-08T12:45:15;12.90;;;2.47;;
12385;SDS011;6257;57.634;18.310;2024-03-08T12:47:42;8.73;;;2.30;;
12385;SDS011;6257;57.634;18.310;2024-03-08T12:50:10;5.43;;;2.20;;
12385;SDS011;6257;57.634;18.310;2024-03-08T12:52:37;5.53;;;1.80;;
12385;SDS011;6257;57.634;18.310;2024-03-08T12:55:05;15.40;;;2.20;;
12385;SDS011;6257;57.634;18.310;2024-03-08T12:57:34;44.73;;;5.87;;
12385;SDS011;6257;57.634;18.310;2024-03-08T13:00:04;14.80;;;2.73;;
12385;SDS011;6257;57.634;18.310;2024-03-08T13:02:38;40.93;;;5.60;;
12385;SDS011;6257;57.634;18.310;2024-03-08T13:05:05;10.90;;;2.23;;
12385;SDS011;6257;57.634;18.310;2024-03-08T13:07:34;25.80;;;4.57;;
12385;SDS011;6257;57.634;18.310;2024-03-08T13:10:03;10.77;;;2.33;;
12385;SDS011;6257;57.634;18.310;2024-03-08T13:12:32;3.87;;;2.00;;
12385;SDS011;6257;57.634;18.310;2024-03-08T13:15:05;8.10;;;3.23;;
12385;SDS011;6257;57.634;18.310;2024-03-08T13:17:33;16.47;;;2.67;;
12385;SDS011;6257;57.634;18.310;2024-03-08T13:20:00;18.03;;;3.37;;
12385;SDS011;6257;57.634;18.310;2024-03-08T13:22:30;12.50;;;2.50;;
12385;SDS011;6257;57.634;18.310;2024-03-08T13:24:57;15.93;;;3.40;;
12385;SDS011;6257;57.634;18.310;2024-03-08T13:27:26;26.13;;;4.60;;
12385;SDS011;6257;57.634;18.310;2024-03-08T13:29:53;8.73;;;2.70;;
12385;SDS011;6257;57.634;18.310;2024-03-08T13:32:22;6.70;;;2.90;;
12385;SDS011;6257;57.634;18.310;2024-03-08T13:34:50;37.57;;;6.23;;
12385;SDS011;6257;57.634;18.310;2024-03-08T13:37:17;5.80;;;2.30;;
12385;SDS011;6257;57.634;18.310;2024-03-08T13:39:44;9.00;;;3.20;;
12385;SDS011;6257;57.634;18.310;2024-03-08T13:42:11;16.10;;;3.40;;
12385;SDS011;6257;57.634;18.310;2024-03-08T13:44:44;7.67;;;2.40;;
12385;SDS011;6257;57.634;18.310;2024-03-08T13:47:12;8.80;;;2.90;;
12385;SDS011;6257;57.634;18.310;2024-03-08T13:49:41;23.53;;;3.93;;
12385;SDS011;6257;57.634;18.310;2024-03-08T13:52:08;16.37;;;2.60;;
12385;SDS011;6257;57.634;18.310;2024-03-08T13:54:37;16.03;;;2.80;;
12385;SDS011;6257;57.634;18.310;2024-03-08T13:57:05;8.70;;;2.30;;
12385;SDS011;6257;57.634;18.310;2024-03-08T13:59:32;4.80;;;2.40;;
12385;SDS011;6257;57.634;18.310;2024-03-08T14:02:00;4.20;;;1.80;;
12385;SDS011;6257;57.634;18.310;2024-03-08T14:04:28;5.83;;;2.40;;
12385;SDS011;6257;57.634;18.310;2024-03-08T14:06:56;6.33;;;2.53;;
12385;SDS011;6257;57.634;18.310;2024-03-08T14:09:28;10.97;;;2.70;;
12385;SDS011;6257;57.634;18.310;2024-03-08T14:11:56;10.43;;;2.20;;
12385;SDS011;6257;57.634;18.310;2024-03-08T14:14:23;9.17;;;2.53;;
12385;SDS011;6257;57.634;18.310;2024-03-08T14:16:51;5.27;;;2.17;;
12385;SDS011;6257;57.634;18.310;2024-03-08T14:19:20;17.50;;;3.53;;
12385;SDS011;6257;57.634;18.310;2024-03-08T14:21:47;13.87;;;3.17;;
12385;SDS011;6257;57.634;18.310;2024-03-08T14:24:16;5.27;;;2.50;;
12385;SDS011;6257;57.634;18.310;2024-03-08T14:26:43;6.33;;;2.50;;
12385;SDS011;6257;57.634;18.310;2024-03-08T14:29:11;5.43;;;2.33;;
12385;SDS011;6257;57.634;18.310;2024-03-08T14:31:38;17.27;;;3.20;;
12385;SDS011;6257;57.634;18.310;2024-03-08T14:34:06;8.53;;;2.57;;
12385;SDS011;6257;57.634;18.310;2024-03-08T14:36:34;8.23;;;2.67;;
12385;SDS011;6257;57.634;18.310;2024-03-08T14:39:01;11.20;;;3.17;;
12385;SDS011;6257;57.634;18.310;2024-03-08T14:41:29;11.40;;;3.20;;
12385;SDS011;6257;57.634;18.310;2024-03-08T14:43:57;11.87;;;3.30;;
12385;SDS011;6257;57.634;18.310;2024-03-08T14:46:25;12.53;;;2.90;;
12385;SDS011;6257;57.634;18.310;2024-03-08T14:48:53;7.73;;;3.00;;